Time;durP1;ratioP1;P1;durP2;ratioP2;P2;SDS_P1;SDS_P2;PMS_P1;PMS_P2;Temp;Humidity;BMP_temperature;BMP_pressure;BME280_temperature;BME280_humidity;BME280_pressure;Samples;Min_cycle;Max_cycle;Signal;HPM_P1;HPM_P2
2021/12/14 00:00:29;;;;;;;;;;;;;;;15.41;64.93;102290.94;1061876;27;859;-57
2021/12/14 00:01:19;;;;;;;;;;;;;;;15.41;64.70;102288.25;1062316;27;667;-59
2021/12/14 00:02:09;;;;;;;;;;;;;;;15.42;65.35;102297.19;1062266;27;799;-58
2021/12/14 00:03:00;;;;;;;;;;;;;;;15.41;64.90;102279.34;1062315;27;666;-59
2021/12/14 00:03:50;;;;;;;;;;;;;;;15.43;64.70;102288.16;1062486;27;639;-59
2021/12/14 00:04:41;;;;;;;;;;;;;;;15.43;64.75;102293.53;1062149;27;1182;-59
2021/12/14 00:05:31;;;;;;;;;;;;;;;15.42;64.92;102287.31;1062374;27;686;-59
2021/12/14 00:06:21;;;;;;;;;;;;;;;15.40;64.96;102285.69;1061989;27;1801;-58
2021/12/14 00:07:12;;;;;;;;;;;;;;;15.38;65.09;102280.41;1058600;28;652;-59
2021/12/14 00:08:02;;;;;;;;;;;;;;;15.39;65.16;102284.84;1058940;27;628;-59
2021/12/14 00:08:56;;;;;;;;;;;;;;;15.38;65.21;102285.78;1058338;28;714;-60
2021/12/14 00:09:47;;;;;;;;;;;;;;;15.36;65.20;102284.16;1058689;28;764;-59
2021/12/14 00:12:36;;;;;;;;;;;;;;;15.37;65.30;102273.31;1059082;27;752;-59
2021/12/14 00:15:31;;;;;;;;;;;;;;;15.37;64.70;102276.00;1058684;28;671;-58
2021/12/14 00:16:21;;;;;;;;;;;;;;;15.37;64.45;102276.00;1059019;28;1958;-58
2021/12/14 00:17:11;;;;;;;;;;;;;;;15.39;64.94;102279.47;1057893;28;675;-59
2021/12/14 00:18:02;;;;;;;;;;;;;;;15.40;64.74;102283.88;1058091;28;628;-59
2021/12/14 00:18:52;;;;;;;;;;;;;;;15.40;64.93;102278.50;1057712;28;875;-59
2021/12/14 00:19:43;;;;;;;;;;;;;;;15.41;64.99;102277.50;1057764;28;679;-59
2021/12/14 00:20:35;;;;;;;;;;;;;;;15.40;65.01;102289.25;1058508;28;683;-58
2021/12/14 00:21:30;;;;;;;;;;;;;;;15.38;64.88;102280.41;1058657;28;805;-59
2021/12/14 00:22:34;;;;;;;;;;;;;;;15.39;64.94;102283.97;1058648;28;736;-59
2021/12/14 00:24:34;;;;;;;;;;;;;;;15.40;64.47;102291.06;1057920;28;617;-59
2021/12/14 00:25:24;;;;;;;;;;;;;;;15.40;64.61;102296.44;1058067;28;881;-59
2021/12/14 00:26:16;;;;;;;;;;;;;;;15.40;65.05;102296.44;1059172;27;1808;-59
2021/12/14 00:27:06;;;;;;;;;;;;;;;15.38;65.02;102307.28;1062717;27;762;-59
2021/12/14 00:27:56;;;;;;;;;;;;;;;15.37;64.99;102300.19;1062020;27;663;-59
2021/12/14 00:28:48;;;;;;;;;;;;;;;15.34;65.40;102303.06;1062144;27;1937;-59
2021/12/14 00:29:38;;;;;;;;;;;;;;;15.33;65.09;102308.50;1062738;27;838;-59
2021/12/14 00:30:29;;;;;;;;;;;;;;;15.33;65.22;102306.69;1062154;27;777;-59
2021/12/14 00:31:20;;;;;;;;;;;;;;;15.34;65.09;102304.88;1061519;27;783;-59
2021/12/14 00:32:11;;;;;;;;;;;;;;;15.33;64.84;102304.00;1062276;27;784;-59
2021/12/14 00:33:01;;;;;;;;;;;;;;;15.34;65.02;102304.88;1062843;27;695;-59
2021/12/14 00:33:52;;;;;;;;;;;;;;;15.33;64.91;102295.94;1062216;27;868;-59
2021/12/14 00:34:43;;;;;;;;;;;;;;;15.34;64.58;102294.13;1062243;27;694;-59
2021/12/14 00:35:34;;;;;;;;;;;;;;;15.33;64.83;102298.63;1062743;27;833;-59
2021/12/14 00:36:24;;;;;;;;;;;;;;;15.34;64.60;102310.25;1061448;27;1888;-59
2021/12/14 00:37:14;;;;;;;;;;;;;;;15.31;64.82;102305.91;1062138;27;813;-60
2021/12/14 00:38:05;;;;;;;;;;;;;;;15.31;64.65;102316.66;1062164;27;694;-59
2021/12/14 00:38:57;;;;;;;;;;;;;;;15.31;64.62;102315.81;1062314;27;747;-59
2021/12/14 00:39:47;;;;;;;;;;;;;;;15.30;65.13;102320.31;1062728;27;959;-60
2021/12/14 00:40:37;;;;;;;;;;;;;;;15.30;64.51;102325.69;1062173;27;600;-59
2021/12/14 00:41:28;;;;;;;;;;;;;;;15.32;64.80;102329.13;1062274;27;683;-60
2021/12/14 00:42:18;;;;;;;;;;;;;;;15.30;65.03;102325.69;1062698;27;748;-60
2021/12/14 00:43:09;;;;;;;;;;;;;;;15.28;64.88;102316.84;1062157;27;701;-60
2021/12/14 00:43:59;;;;;;;;;;;;;;;15.28;65.02;102308.78;1062038;27;884;-60
2021/12/14 00:44:50;;;;;;;;;;;;;;;15.28;64.45;102306.09;1062056;27;742;-60
2021/12/14 00:45:40;;;;;;;;;;;;;;;15.30;64.74;102312.25;1062174;27;672;-60
2021/12/14 00:46:30;;;;;;;;;;;;;;;15.31;64.70;102305.91;1058541;28;621;-60
2021/12/14 00:47:21;;;;;;;;;;;;;;;15.32;64.83;102312.16;1059080;27;964;-60
2021/12/14 00:48:11;;;;;;;;;;;;;;;15.29;65.02;102314.06;1059031;27;873;-58
2021/12/14 00:49:02;;;;;;;;;;;;;;;15.27;64.77;102307.06;1059041;27;705;-58
2021/12/14 00:49:54;;;;;;;;;;;;;;;15.26;64.75;102314.25;1058978;28;676;-57
2021/12/14 00:50:44;;;;;;;;;;;;;;;15.27;64.80;102313.28;1059100;27;709;-57
2021/12/14 00:51:35;;;;;;;;;;;;;;;15.26;64.80;102302.63;1059152;27;632;-58
2021/12/14 00:52:25;;;;;;;;;;;;;;;15.25;64.74;102301.78;1058832;28;814;-59
2021/12/14 00:53:15;;;;;;;;;;;;;;;15.26;64.74;102291.91;1059109;27;709;-58
2021/12/14 00:54:06;;;;;;;;;;;;;;;15.27;64.42;102289.13;1059039;27;727;-58
2021/12/14 00:54:56;;;;;;;;;;;;;;;15.29;64.45;102281.84;1058669;27;714;-59
2021/12/14 00:55:47;;;;;;;;;;;;;;;15.29;64.53;102279.16;1055838;28;649;-58
2021/12/14 00:56:37;;;;;;;;;;;;;;;15.31;64.26;102284.44;1056299;28;941;-59
2021/12/14 00:57:29;;;;;;;;;;;;;;;15.31;64.22;102284.44;1056921;28;769;-58
2021/12/14 00:58:20;;;;;;;;;;;;;;;15.32;64.54;102282.59;1055751;28;747;-59
2021/12/14 00:59:12;;;;;;;;;;;;;;;15.32;64.34;102286.16;1056222;28;1001;-58
2021/12/14 01:00:03;;;;;;;;;;;;;;;15.32;64.58;102282.59;1058524;28;781;-59
2021/12/14 01:00:53;;;;;;;;;;;;;;;15.33;64.79;102276.28;1057064;28;804;-58
2021/12/14 01:01:43;;;;;;;;;;;;;;;15.32;64.35;102267.34;1055712;28;649;-58
2021/12/14 01:02:34;;;;;;;;;;;;;;;15.31;64.88;102268.31;1056080;28;916;-59
2021/12/14 01:03:24;;;;;;;;;;;;;;;15.29;64.75;102270.22;1057864;28;754;-58
2021/12/14 01:04:15;;;;;;;;;;;;;;;15.30;64.74;102266.59;1058066;28;1893;-59
2021/12/14 01:05:05;;;;;;;;;;;;;;;15.29;64.67;102265.72;1061374;27;1195;-59
2021/12/14 01:05:56;;;;;;;;;;;;;;;15.30;64.64;102271.97;1062091;27;741;-59
2021/12/14 01:06:46;;;;;;;;;;;;;;;15.28;65.00;102260.44;1058354;28;808;-59
2021/12/14 01:07:37;;;;;;;;;;;;;;;15.27;64.89;102275.69;1058829;28;679;-59
2021/12/14 01:08:27;;;;;;;;;;;;;;;15.26;64.95;102276.66;1058907;27;1921;-59
2021/12/14 01:09:17;;;;;;;;;;;;;;;15.28;64.67;102268.50;1058846;28;849;-59
2021/12/14 01:10:08;;;;;;;;;;;;;;;15.27;64.50;102273.00;1059016;27;983;-59
2021/12/14 01:11:02;;;;;;;;;;;;;;;15.29;64.59;102270.22;1058972;28;849;-59
2021/12/14 01:11:52;;;;;;;;;;;;;;;15.29;64.37;102272.91;1058884;27;686;-59
2021/12/14 01:12:53;;;;;;;;;;;;;;;15.29;64.72;102259.50;1058914;27;711;-59
2021/12/14 01:13:51;;;;;;;;;;;;;;;15.29;64.59;102256.81;1058376;28;669;-59
2021/12/14 01:14:45;;;;;;;;;;;;;;;15.28;64.74;102263.13;1062135;27;1994;-59
2021/12/14 01:15:51;;;;;;;;;;;;;;;15.28;65.11;102255.06;1062688;27;893;-59
2021/12/14 01:17:05;;;;;;;;;;;;;;;15.27;64.99;102253.34;1062576;27;683;-59
2021/12/14 01:18:12;;;;;;;;;;;;;;;15.28;64.79;102236.28;1062617;27;658;-60
2021/12/14 01:19:13;;;;;;;;;;;;;;;15.28;64.63;102241.66;1061464;27;2391;-60
2021/12/14 01:20:04;;;;;;;;;;;;;;;15.27;64.81;102250.66;1060869;27;805;-60
2021/12/14 01:20:59;;;;;;;;;;;;;;;15.26;64.62;102240.88;1060073;27;667;-60
2021/12/14 01:22:46;;;;;;;;;;;;;;;15.28;64.72;102241.66;1063250;27;725;-60
2021/12/14 01:23:37;;;;;;;;;;;;;;;15.28;64.82;102245.19;1062574;27;866;-60
2021/12/14 01:25:00;;;;;;;;;;;;;;;15.27;64.87;102239.91;1062468;27;1803;-60
2021/12/14 01:25:47;;;;;;;;;;;;;;;15.27;64.91;102247.97;1062612;27;864;-60
2021/12/14 01:26:38;;;;;;;;;;;;;;;15.27;64.66;102246.16;1061568;27;719;-60
2021/12/14 01:27:31;;;;;;;;;;;;;;;15.28;65.03;102249.69;1060738;28;843;-60
2021/12/14 01:28:21;;;;;;;;;;;;;;;15.29;65.15;102246.06;1061012;27;648;-60
2021/12/14 01:29:14;;;;;;;;;;;;;;;15.28;64.38;102244.31;1062445;27;961;-60
2021/12/14 01:30:06;;;;;;;;;;;;;;;15.27;64.71;102235.41;1062500;27;923;-59
2021/12/14 01:31:09;;;;;;;;;;;;;;;15.28;64.82;102230.91;1060783;27;761;-61
2021/12/14 01:32:02;;;;;;;;;;;;;;;15.26;65.19;102232.81;1060989;27;962;-60
2021/12/14 01:32:52;;;;;;;;;;;;;;;15.25;64.59;102223.91;1060969;27;659;-60
2021/12/14 01:33:43;;;;;;;;;;;;;;;15.27;65.09;102232.72;1061236;28;679;-60
2021/12/14 01:34:35;;;;;;;;;;;;;;;15.27;64.67;102239.91;1061982;27;1673;-60
2021/12/14 01:35:28;;;;;;;;;;;;;;;15.26;64.96;102240.88;1062680;27;686;-60
2021/12/14 01:37:28;;;;;;;;;;;;;;;15.22;64.70;102220.56;1063133;27;738;-60
2021/12/14 01:40:18;;;;;;;;;;;;;;;15.24;65.06;102235.59;1063035;27;1092;-59
2021/12/14 01:41:08;;;;;;;;;;;;;;;15.24;64.43;102242.78;1062673;27;671;-59
2021/12/14 01:41:59;;;;;;;;;;;;;;;15.25;64.95;102233.78;1061405;28;642;-59
2021/12/14 01:42:49;;;;;;;;;;;;;;;15.24;64.58;102238.28;1061727;28;1823;-59
2021/12/14 01:43:39;;;;;;;;;;;;;;;15.25;64.67;102236.47;1061487;28;641;-59
2021/12/14 01:44:30;;;;;;;;;;;;;;;15.24;64.53;102235.59;1061310;28;900;-59
2021/12/14 01:45:20;;;;;;;;;;;;;;;15.24;64.65;102243.66;1061540;28;700;-59
2021/12/14 01:46:11;;;;;;;;;;;;;;;15.22;64.45;102250.97;1061331;28;802;-58
2021/12/14 01:47:01;;;;;;;;;;;;;;;15.24;64.71;102245.47;1061329;28;671;-59
2021/12/14 01:47:52;;;;;;;;;;;;;;;15.24;64.75;102240.09;1061163;28;672;-59
2021/12/14 01:48:42;;;;;;;;;;;;;;;15.23;64.50;102239.22;1060662;28;1957;-59
2021/12/14 01:49:32;;;;;;;;;;;;;;;15.21;65.09;102238.50;1062677;27;1520;-59
2021/12/14 01:50:23;;;;;;;;;;;;;;;15.21;65.09;102237.63;1057171;28;875;-59
2021/12/14 01:51:13;;;;;;;;;;;;;;;15.20;65.04;102243.97;1056979;28;785;-59
2021/12/14 01:52:04;;;;;;;;;;;;;;;15.18;65.28;102252.09;1057402;28;708;-59
2021/12/14 01:52:54;;;;;;;;;;;;;;;15.18;64.76;102260.16;1061249;28;2036;-59
2021/12/14 01:53:44;;;;;;;;;;;;;;;15.18;64.93;102259.28;1061927;28;750;-59
2021/12/14 01:54:35;;;;;;;;;;;;;;;15.19;65.33;102261.03;1061923;28;527;-59
2021/12/14 01:55:25;;;;;;;;;;;;;;;15.18;65.02;102260.16;1062087;28;701;-59
2021/12/14 01:56:16;;;;;;;;;;;;;;;15.17;64.77;102268.31;1061116;28;778;-58
2021/12/14 01:57:07;;;;;;;;;;;;;;;15.17;64.50;102265.63;1059906;28;838;-59
2021/12/14 01:57:58;;;;;;;;;;;;;;;15.16;65.18;102270.13;1059634;28;734;-58
2021/12/14 01:58:48;;;;;;;;;;;;;;;15.18;65.11;102267.34;1062521;27;752;-56
2021/12/14 01:59:39;;;;;;;;;;;;;;;15.19;64.77;102258.34;1061952;28;648;-57
2021/12/14 02:00:33;;;;;;;;;;;;;;;15.19;64.64;102269.94;1062534;27;806;-59
2021/12/14 02:01:24;;;;;;;;;;;;;;;15.22;64.84;102271.59;1062610;27;806;-59
2021/12/14 02:02:25;;;;;;;;;;;;;;;15.22;64.38;102266.22;1061493;28;713;-59
2021/12/14 02:03:15;;;;;;;;;;;;;;;15.21;64.87;102270.72;1057695;28;797;-60
2021/12/14 02:04:06;;;;;;;;;;;;;;;15.22;64.65;102268.91;1056993;28;857;-60
2021/12/14 02:04:56;;;;;;;;;;;;;;;15.19;64.63;102271.78;1057484;28;1159;-60
2021/12/14 02:05:46;;;;;;;;;;;;;;;15.18;64.70;102273.59;1061155;28;656;-60
2021/12/14 02:06:37;;;;;;;;;;;;;;;15.18;64.73;102278.09;1061585;28;648;-59
2021/12/14 02:07:27;;;;;;;;;;;;;;;15.18;64.34;102267.34;1057823;28;742;-59
2021/12/14 02:08:18;;;;;;;;;;;;;;;15.20;64.66;102276.19;1057056;28;710;-59
2021/12/14 02:09:08;;;;;;;;;;;;;;;15.21;64.56;102280.59;1057737;28;740;-60
2021/12/14 02:09:59;;;;;;;;;;;;;;;15.21;64.73;102283.28;1056968;28;806;-59
2021/12/14 02:10:49;;;;;;;;;;;;;;;15.21;64.39;102269.84;1057736;28;680;-59
2021/12/14 02:11:39;;;;;;;;;;;;;;;15.21;64.70;102275.22;1057671;28;829;-59
2021/12/14 02:12:31;;;;;;;;;;;;;;;15.21;64.52;102275.22;1057397;28;1071;-58
2021/12/14 02:13:21;;;;;;;;;;;;;;;15.20;64.68;102268.13;1057505;28;718;-59
2021/12/14 02:14:12;;;;;;;;;;;;;;;15.19;64.98;102274.47;1058206;28;949;-59
2021/12/14 02:15:02;;;;;;;;;;;;;;;15.20;64.87;102268.13;1057612;28;1405;-59
2021/12/14 02:15:52;;;;;;;;;;;;;;;15.19;64.68;102275.31;1057674;28;882;-59
2021/12/14 02:16:43;;;;;;;;;;;;;;;15.18;65.02;102268.22;1057064;28;713;-59
2021/12/14 02:17:33;;;;;;;;;;;;;;;15.19;64.73;102263.72;1057650;28;878;-60
2021/12/14 02:18:24;;;;;;;;;;;;;;;15.18;64.99;102257.47;1057659;28;624;-59
2021/12/14 02:19:14;;;;;;;;;;;;;;;15.18;64.66;102261.97;1057686;28;666;-59
2021/12/14 02:20:05;;;;;;;;;;;;;;;15.17;64.79;102266.50;1057495;28;997;-59
2021/12/14 02:20:55;;;;;;;;;;;;;;;15.18;65.07;102260.16;1057506;28;644;-59
2021/12/14 02:21:45;;;;;;;;;;;;;;;15.18;65.00;102259.28;1057727;28;738;-59
2021/12/14 02:22:36;;;;;;;;;;;;;;;15.18;64.69;102252.09;1057693;28;1831;-59
2021/12/14 02:23:26;;;;;;;;;;;;;;;15.17;64.99;102253.06;1058212;28;822;-58
2021/12/14 02:24:19;;;;;;;;;;;;;;;15.19;64.79;102242.22;1058222;28;872;-59
2021/12/14 02:25:09;;;;;;;;;;;;;;;15.19;64.62;102244.91;1058248;28;975;-58
2021/12/14 02:26:00;;;;;;;;;;;;;;;15.19;65.04;102250.28;1058896;28;844;-59
2021/12/14 02:26:50;;;;;;;;;;;;;;;15.18;64.69;102252.09;1058861;28;695;-58
2021/12/14 02:27:41;;;;;;;;;;;;;;;15.19;64.84;102255.66;1058270;28;763;-58
2021/12/14 02:28:31;;;;;;;;;;;;;;;15.19;64.74;102253.84;1058214;28;1897;-58
2021/12/14 02:29:22;;;;;;;;;;;;;;;15.18;65.19;102261.97;1061843;28;1982;-58
2021/12/14 02:30:12;;;;;;;;;;;;;;;15.20;64.63;102266.31;1060959;28;787;-58
2021/12/14 02:31:02;;;;;;;;;;;;;;;15.21;64.67;102272.53;1060242;28;782;-58
2021/12/14 02:31:53;;;;;;;;;;;;;;;15.20;64.79;102273.50;1060005;28;645;-59
2021/12/14 02:32:43;;;;;;;;;;;;;;;15.20;65.23;102265.44;1061853;28;627;-58
2021/12/14 02:33:34;;;;;;;;;;;;;;;15.18;64.96;102262.84;1061933;28;824;-60
2021/12/14 02:34:24;;;;;;;;;;;;;;;15.20;65.19;102260.06;1061819;28;846;-58
2021/12/14 02:35:14;;;;;;;;;;;;;;;15.19;64.66;102255.66;1060815;28;1581;-58
2021/12/14 02:36:05;;;;;;;;;;;;;;;15.19;65.13;102245.78;1057667;28;810;-58
2021/12/14 02:36:57;;;;;;;;;;;;;;;15.20;64.80;102243.97;1057605;28;1147;-58
2021/12/14 02:37:48;;;;;;;;;;;;;;;15.20;65.04;102243.97;1058277;28;722;-58
2021/12/14 02:38:38;;;;;;;;;;;;;;;15.18;65.07;102243.19;1057547;28;926;-57
2021/12/14 02:40:53;;;;;;;;;;;;;;;15.16;65.04;102242.41;1061812;28;635;-58
2021/12/14 02:41:41;;;;;;;;;;;;;;;15.17;65.10;102244.16;1062612;27;1136;-58
2021/12/14 02:42:32;;;;;;;;;;;;;;;15.16;65.17;102231.69;1061745;28;627;-59
2021/12/14 02:43:22;;;;;;;;;;;;;;;15.16;64.97;102232.53;1062439;28;653;-58
2021/12/14 02:44:13;;;;;;;;;;;;;;;15.14;65.42;102226.41;1061119;28;1024;-58
2021/12/14 02:45:03;;;;;;;;;;;;;;;15.16;65.02;102231.69;1061245;28;737;-58
2021/12/14 02:45:54;;;;;;;;;;;;;;;15.16;65.01;102231.69;1057686;28;739;-58
2021/12/14 02:46:45;;;;;;;;;;;;;;;15.17;65.37;102228.03;1058259;28;653;-58
2021/12/14 02:47:36;;;;;;;;;;;;;;;15.17;65.28;102231.59;1058268;28;765;-58
2021/12/14 02:48:26;;;;;;;;;;;;;;;15.17;65.12;102228.91;1057747;28;687;-59
2021/12/14 02:49:16;;;;;;;;;;;;;;;15.17;65.35;102222.66;1057417;28;926;-58
2021/12/14 02:50:07;;;;;;;;;;;;;;;15.18;65.34;102224.38;1058166;28;767;-58
2021/12/14 02:50:57;;;;;;;;;;;;;;;15.17;64.99;102222.66;1058221;28;822;-58
2021/12/14 02:51:48;;;;;;;;;;;;;;;15.17;65.21;102222.66;1058227;28;710;-58
2021/12/14 02:52:38;;;;;;;;;;;;;;;15.16;64.79;102221.78;1058228;28;624;-58
2021/12/14 02:53:29;;;;;;;;;;;;;;;15.16;64.91;102216.44;1058830;28;916;-58
2021/12/14 02:54:19;;;;;;;;;;;;;;;15.16;65.18;102221.78;1059015;28;813;-58
2021/12/14 02:55:10;;;;;;;;;;;;;;;15.14;64.86;102221.03;1061844;27;825;-58
2021/12/14 02:56:01;;;;;;;;;;;;;;;15.14;65.06;102218.34;1058033;28;740;-58
2021/12/14 02:56:51;;;;;;;;;;;;;;;15.15;64.84;102219.19;1056308;28;804;-58
2021/12/14 02:57:41;;;;;;;;;;;;;;;15.16;65.35;102220.94;1057938;28;890;-58
2021/12/14 02:58:32;;;;;;;;;;;;;;;15.16;65.15;102221.78;1056297;28;633;-58
2021/12/14 02:59:22;;;;;;;;;;;;;;;15.16;64.68;102219.13;1059017;28;875;-58
2021/12/14 03:00:13;;;;;;;;;;;;;;;15.17;65.25;102215.47;1058313;28;749;-58
2021/12/14 03:01:03;;;;;;;;;;;;;;;15.17;64.90;102211.91;1058409;28;741;-59
2021/12/14 03:01:54;;;;;;;;;;;;;;;15.17;65.40;102212.78;1058288;28;885;-59
2021/12/14 03:02:44;;;;;;;;;;;;;;;15.14;65.38;102212.09;1058332;28;633;-58
2021/12/14 03:03:35;;;;;;;;;;;;;;;15.11;65.03;102206.91;1058326;28;833;-58
2021/12/14 03:04:26;;;;;;;;;;;;;;;15.12;64.93;102211.34;1058957;28;636;-58
2021/12/14 03:05:16;;;;;;;;;;;;;;;15.12;65.04;102208.66;1059324;27;700;-59
2021/12/14 03:06:09;;;;;;;;;;;;;;;15.13;65.12;102213.06;1058334;28;908;-59
2021/12/14 03:07:00;;;;;;;;;;;;;;;15.11;65.09;102214.97;1058810;28;610;-58
2021/12/14 03:07:50;;;;;;;;;;;;;;;15.09;65.36;102215.06;1059425;27;780;-58
2021/12/14 03:08:46;;;;;;;;;;;;;;;15.08;65.03;102216.03;1059368;27;1963;-58
2021/12/14 03:09:40;;;;;;;;;;;;;;;15.06;65.53;102223.31;1058888;28;782;-59
2021/12/14 03:11:21;;;;;;;;;;;;;;;15.05;65.27;102232.31;1059499;27;786;-60
2021/12/14 03:12:11;;;;;;;;;;;;;;;15.06;65.06;102236.72;1059279;27;917;-58
2021/12/14 03:13:01;;;;;;;;;;;;;;;15.05;64.94;102239.53;1059374;27;652;-59
2021/12/14 03:13:52;;;;;;;;;;;;;;;15.05;65.03;102235.00;1061543;27;1788;-59
2021/12/14 03:14:42;;;;;;;;;;;;;;;15.08;64.80;102247.38;1062404;27;822;-59
2021/12/14 03:15:33;;;;;;;;;;;;;;;15.07;64.95;102238.47;1063009;27;1873;-59
2021/12/14 03:16:24;;;;;;;;;;;;;;;15.07;65.10;102237.59;1058837;28;932;-59
2021/12/14 03:17:14;;;;;;;;;;;;;;;15.08;64.72;102247.38;1058851;28;746;-59
2021/12/14 03:18:05;;;;;;;;;;;;;;;15.09;65.13;102244.59;1058810;28;728;-60
2021/12/14 03:18:55;;;;;;;;;;;;;;;15.09;64.90;102231.19;1059923;27;1972;-60
2021/12/14 03:19:46;;;;;;;;;;;;;;;15.10;65.04;102242.78;1061587;27;974;-60
2021/12/14 03:20:36;;;;;;;;;;;;;;;15.09;64.77;102243.75;1060538;27;819;-59
2021/12/14 03:21:26;;;;;;;;;;;;;;;15.07;64.76;102242.97;1060399;27;1708;-59
2021/12/14 03:22:17;;;;;;;;;;;;;;;15.07;65.10;102242.97;1062451;27;764;-60
2021/12/14 03:23:07;;;;;;;;;;;;;;;15.07;64.84;102245.66;1062584;27;1150;-59
2021/12/14 03:23:58;;;;;;;;;;;;;;;15.07;64.59;102240.28;1062312;27;1938;-59
2021/12/14 03:24:48;;;;;;;;;;;;;;;15.08;64.68;102250.94;1062469;27;974;-59
2021/12/14 03:25:38;;;;;;;;;;;;;;;15.09;65.20;102252.66;1062420;27;779;-59
2021/12/14 03:26:29;;;;;;;;;;;;;;;15.10;64.54;102256.22;1062429;27;734;-59
2021/12/14 03:27:19;;;;;;;;;;;;;;;15.09;64.68;102262.53;1061832;27;705;-59
2021/12/14 03:28:10;;;;;;;;;;;;;;;15.06;64.81;102255.53;1062413;27;698;-59
2021/12/14 03:29:00;;;;;;;;;;;;;;;15.07;65.03;102259.06;1062479;27;853;-59
2021/12/14 03:29:51;;;;;;;;;;;;;;;15.03;64.81;102254.88;1062453;27;625;-59
2021/12/14 03:30:41;;;;;;;;;;;;;;;15.04;65.31;102260.16;1062393;27;825;-59
2021/12/14 03:31:32;;;;;;;;;;;;;;;15.01;65.13;102257.66;1062627;27;689;-59
2021/12/14 03:32:22;;;;;;;;;;;;;;;15.03;64.80;102262.94;1062568;27;759;-59
2021/12/14 03:33:16;;;;;;;;;;;;;;;15.04;64.46;102261.97;1062479;27;778;-59
2021/12/14 03:34:07;;;;;;;;;;;;;;;15.04;65.12;102261.97;1058067;28;1454;-59
2021/12/14 03:34:57;;;;;;;;;;;;;;;15.03;64.83;102257.56;1058184;28;861;-59
2021/12/14 03:35:48;;;;;;;;;;;;;;;15.02;65.12;102262.06;1061394;27;680;-59
2021/12/14 03:36:38;;;;;;;;;;;;;;;15.02;64.65;102262.06;1060935;27;697;-58
2021/12/14 03:37:28;;;;;;;;;;;;;;;15.02;64.80;102266.56;1060630;27;652;-59
2021/12/14 03:38:19;;;;;;;;;;;;;;;15.04;65.09;102278.09;1056514;28;720;-60
2021/12/14 03:39:09;;;;;;;;;;;;;;;15.04;64.58;102267.34;1058221;28;750;-59
2021/12/14 03:40:00;;;;;;;;;;;;;;;15.01;64.72;102273.75;1057510;28;920;-59
2021/12/14 03:40:50;;;;;;;;;;;;;;;14.99;64.72;102272.97;1058051;28;640;-60
2021/12/14 03:41:41;;;;;;;;;;;;;;;14.99;64.65;102264.06;1058229;28;700;-60
2021/12/14 03:42:36;;;;;;;;;;;;;;;14.98;64.58;102259.66;1058070;28;757;-58
2021/12/14 03:43:26;;;;;;;;;;;;;;;14.99;64.59;102262.25;1058025;28;2025;-59
2021/12/14 03:44:17;;;;;;;;;;;;;;;15.00;65.04;102263.97;1058089;28;702;-59
2021/12/14 03:45:07;;;;;;;;;;;;;;;15.01;64.40;102262.16;1058240;28;751;-58
2021/12/14 03:45:58;;;;;;;;;;;;;;;15.03;64.36;102252.19;1058147;28;671;-59
2021/12/14 03:46:48;;;;;;;;;;;;;;;15.02;65.22;102259.38;1058180;28;612;-59
2021/12/14 03:47:39;;;;;;;;;;;;;;;15.03;64.54;102257.56;1058191;28;854;-59
2021/12/14 03:48:29;;;;;;;;;;;;;;;15.05;64.56;102255.66;1058169;28;633;-59
2021/12/14 03:49:19;;;;;;;;;;;;;;;15.02;64.93;102247.78;1058198;28;1206;-58
2021/12/14 03:50:10;;;;;;;;;;;;;;;15.02;64.83;102258.50;1058633;28;815;-59
2021/12/14 03:51:01;;;;;;;;;;;;;;;15.01;65.17;102254.97;1061529;27;785;-60
2021/12/14 03:51:51;;;;;;;;;;;;;;;15.01;64.89;102254.09;1061948;27;2018;-60
2021/12/14 03:52:42;;;;;;;;;;;;;;;15.02;65.24;102256.69;1058729;28;616;-59
2021/12/14 03:53:32;;;;;;;;;;;;;;;15.03;64.51;102260.25;1057608;28;896;-59
2021/12/14 03:54:23;;;;;;;;;;;;;;;15.03;65.17;102257.56;1057478;28;608;-59
2021/12/14 03:55:13;;;;;;;;;;;;;;;15.03;64.63;102249.50;1057619;28;734;-59
2021/12/14 03:56:04;;;;;;;;;;;;;;;15.04;65.04;102259.28;1059167;27;953;-59
2021/12/14 03:56:54;;;;;;;;;;;;;;;15.05;64.67;102256.47;1057456;28;734;-59
2021/12/14 03:57:44;;;;;;;;;;;;;;;15.03;64.61;102250.38;1058138;28;932;-59
2021/12/14 03:58:35;;;;;;;;;;;;;;;15.01;64.64;102249.59;1057496;28;612;-59
2021/12/14 03:59:25;;;;;;;;;;;;;;;15.03;64.54;102260.25;1057635;28;711;-59
2021/12/14 04:00:16;;;;;;;;;;;;;;;15.03;64.56;102252.19;1059392;27;932;-59
2021/12/14 04:01:06;;;;;;;;;;;;;;;15.04;64.95;102256.59;1058987;28;718;-59
2021/12/14 04:01:57;;;;;;;;;;;;;;;15.04;65.17;102253.91;1058252;28;773;-59
2021/12/14 04:02:48;;;;;;;;;;;;;;;15.03;64.75;102253.06;1058718;28;656;-59
2021/12/14 04:03:39;;;;;;;;;;;;;;;15.03;64.65;102252.19;1057533;28;652;-59
2021/12/14 04:04:29;;;;;;;;;;;;;;;15.02;64.77;102247.78;1057204;28;780;-59
2021/12/14 04:05:20;;;;;;;;;;;;;;;15.01;65.04;102254.09;1057548;28;690;-59
2021/12/14 04:06:11;;;;;;;;;;;;;;;14.99;64.81;102247.97;1058588;28;862;-61
2021/12/14 04:07:01;;;;;;;;;;;;;;;14.98;64.92;102249.78;1057538;28;804;-60
2021/12/14 04:07:51;;;;;;;;;;;;;;;15.00;65.02;102257.75;1057648;28;650;-59
2021/12/14 04:08:42;;;;;;;;;;;;;;;15.00;64.47;102253.25;1057265;28;1910;-60
2021/12/14 04:09:32;;;;;;;;;;;;;;;15.01;65.19;102243.38;1059082;27;655;-59
2021/12/14 04:10:23;;;;;;;;;;;;;;;15.01;65.35;102254.09;1058418;28;791;-60
2021/12/14 04:11:13;;;;;;;;;;;;;;;15.01;65.16;102254.09;1058557;28;706;-59
2021/12/14 04:12:03;;;;;;;;;;;;;;;15.01;64.69;102252.28;1057946;28;1705;-60
2021/12/14 04:12:54;;;;;;;;;;;;;;;15.01;65.27;102251.41;1057924;28;618;-60
2021/12/14 04:13:44;;;;;;;;;;;;;;;15.01;64.96;102246.06;1058104;28;710;-59
2021/12/14 04:14:35;;;;;;;;;;;;;;;15.02;64.80;102250.47;1057941;28;874;-60
2021/12/14 04:15:25;;;;;;;;;;;;;;;15.03;64.83;102250.38;1058076;28;679;-59
2021/12/14 04:16:16;;;;;;;;;;;;;;;15.03;64.41;102244.13;1058431;28;1078;-60
2021/12/14 04:17:06;;;;;;;;;;;;;;;15.04;64.56;102257.47;1058560;28;777;-59
2021/12/14 04:17:56;;;;;;;;;;;;;;;15.03;65.01;102247.69;1058739;28;734;-59
2021/12/14 04:18:47;;;;;;;;;;;;;;;15.04;65.11;102251.22;1058599;28;877;-60
2021/12/14 04:19:39;;;;;;;;;;;;;;;15.04;64.45;102251.22;1059276;27;699;-60
2021/12/14 04:20:30;;;;;;;;;;;;;;;15.04;64.23;102241.38;1059341;27;635;-59
2021/12/14 04:21:21;;;;;;;;;;;;;;;15.01;64.68;102244.22;1058598;28;635;-60
2021/12/14 04:22:12;;;;;;;;;;;;;;;15.01;64.61;102243.38;1059155;27;699;-60
2021/12/14 04:23:02;;;;;;;;;;;;;;;15.01;64.86;102244.22;1061192;27;892;-60
2021/12/14 04:23:52;;;;;;;;;;;;;;;15.00;65.02;102241.63;1059939;27;1948;-60
2021/12/14 04:24:43;;;;;;;;;;;;;;;15.01;64.70;102246.06;1060061;27;579;-60
2021/12/14 04:25:33;;;;;;;;;;;;;;;15.00;65.10;102244.31;1058856;27;695;-60
2021/12/14 04:26:24;;;;;;;;;;;;;;;15.00;64.80;102247.88;1058568;28;635;-60
2021/12/14 04:27:14;;;;;;;;;;;;;;;15.00;65.13;102247.00;1058492;28;745;-60
2021/12/14 04:28:05;;;;;;;;;;;;;;;15.01;64.78;102254.09;1058515;28;650;-59
2021/12/14 04:28:55;;;;;;;;;;;;;;;14.99;65.24;102245.28;1058505;28;1917;-59
2021/12/14 04:29:45;;;;;;;;;;;;;;;14.98;64.51;102247.09;1058720;28;655;-59
2021/12/14 04:30:36;;;;;;;;;;;;;;;14.98;65.15;102248.91;1058543;28;796;-59
2021/12/14 04:31:26;;;;;;;;;;;;;;;14.94;65.36;102257.16;1059241;28;1607;-59
2021/12/14 04:32:17;;;;;;;;;;;;;;;14.94;65.13;102243.72;1062824;27;666;-59
2021/12/14 04:33:07;;;;;;;;;;;;;;;14.93;65.21;102260.78;1062819;27;651;-59
2021/12/14 04:33:57;;;;;;;;;;;;;;;14.94;65.04;102261.66;1061696;27;947;-59
2021/12/14 04:34:48;;;;;;;;;;;;;;;14.93;64.99;102259.91;1061477;27;683;-59
2021/12/14 04:35:38;;;;;;;;;;;;;;;14.94;64.96;102245.53;1062202;27;766;-59
2021/12/14 04:36:30;;;;;;;;;;;;;;;14.93;65.33;102257.25;1062888;27;711;-57
2021/12/14 04:37:20;;;;;;;;;;;;;;;14.94;65.11;102249.09;1062873;27;797;-59
2021/12/14 04:38:19;;;;;;;;;;;;;;;14.94;64.61;102242.88;1061821;27;707;-59
2021/12/14 04:40:25;;;;;;;;;;;;;;;14.94;64.75;102238.34;1062212;27;719;-57
2021/12/14 04:51:58;;;;;;;;;;;;;;;14.98;64.59;102224.75;1057873;28;696;-58
2021/12/14 04:52:48;;;;;;;;;;;;;;;14.98;64.73;102228.31;1058582;28;726;-58